Time;durP1;ratioP1;P1;durP2;ratioP2;P2;SDS_P1;SDS_P2;PMS_P1;PMS_P2;Temp;Humidity;BMP_temperature;BMP_pressure;BME280_temperature;BME280_humidity;BME280_pressure;Samples;Min_cycle;Max_cycle;Signal;HPM_P1;HPM_P2
2021/12/13 00:02:45;;;;;;;11.36;8.35;;;;;;;5.08;98.23;100452.91;1976476;79;53663;-75
2021/12/13 00:05:57;;;;;;;11.65;7.63;;;;;;;5.07;98.34;100453.50;1978541;82;20353;-75
2021/12/13 00:09:05;;;;;;;13.66;8.85;;;;;;;5.06;98.45;100452.72;1978455;82;20322;-75
2021/12/13 00:12:09;;;;;;;13.50;8.22;;;;;;;5.05;98.58;100452.41;1977946;82;20409;-75
2021/12/13 00:15:23;;;;;;;14.39;8.66;;;;;;;5.05;98.67;100452.00;1976321;82;20930;-75
2021/12/13 00:18:30;;;;;;;14.71;8.05;;;;;;;5.04;98.62;100453.81;1979362;82;20472;-75
2021/12/13 00:21:44;;;;;;;11.39;8.01;;;;;;;5.04;98.67;100455.81;1977583;82;20318;-75
2021/12/13 00:24:48;;;;;;;13.04;8.52;;;;;;;5.04;98.68;100456.69;1977995;82;20892;-75
2021/12/13 00:27:57;;;;;;;13.93;8.02;;;;;;;5.04;98.80;100455.19;1978469;82;20322;-75
2021/12/13 00:31:09;;;;;;;12.20;8.34;;;;;;;5.04;98.80;100454.84;1976403;79;21556;-75
2021/12/13 00:34:21;;;;;;;12.34;7.75;;;;;;;5.04;98.70;100454.00;2044906;71;21199;-75
2021/12/13 00:37:35;;;;;;;12.76;8.77;;;;;;;5.04;98.70;100454.94;1982747;81;20415;-74
2021/12/13 00:40:43;;;;;;;15.01;8.05;;;;;;;5.05;98.83;100454.91;1982571;81;20407;-74
2021/12/13 00:43:51;;;;;;;13.31;7.91;;;;;;;5.05;98.80;100455.03;1982778;82;20397;-74
2021/12/13 00:46:56;;;;;;;14.66;8.90;;;;;;;5.05;98.66;100456.22;1981536;79;20995;-74
2021/12/13 00:50:10;;;;;;;12.88;7.80;;;;;;;5.05;98.82;100455.75;1982861;82;20669;-74
2021/12/13 00:53:21;;;;;;;12.14;8.18;;;;;;;5.05;98.85;100455.78;1982233;81;20450;-74
2021/12/13 00:56:47;;;;;;;11.40;7.84;;;;;;;5.05;98.86;100455.94;1982233;82;20313;-74
2021/12/13 01:00:03;;;;;;;11.74;8.04;;;;;;;5.05;99.00;100454.97;1982284;81;20378;-74
2021/12/13 01:03:14;;;;;;;13.35;8.38;;;;;;;5.06;98.97;100454.41;1977476;79;26109;-74
2021/12/13 01:06:58;;;;;;;10.82;7.21;;;;;;;5.06;98.90;100452.88;1977651;82;20399;-74
2021/12/13 01:10:38;;;;;;;11.23;7.72;;;;;;;5.07;98.91;100453.25;1977521;82;20364;-74
2021/12/13 01:14:16;;;;;;;11.82;7.50;;;;;;;5.06;98.80;100453.63;1977449;82;20349;-74
2021/12/13 01:17:37;;;;;;;10.43;7.31;;;;;;;5.06;98.97;100458.28;1977273;79;23368;-74
2021/12/13 01:20:59;;;;;;;8.85;7.04;;;;;;;5.06;99.03;100461.03;1977668;82;20445;-74
2021/12/13 01:24:13;;;;;;;11.21;7.35;;;;;;;5.06;99.00;100462.47;1978151;82;21201;-74
2021/12/13 01:27:29;;;;;;;10.63;7.25;;;;;;;5.07;99.11;100465.16;1977045;82;20346;-74
2021/12/13 01:30:36;;;;;;;9.51;7.06;;;;;;;5.07;99.05;100469.75;1976753;79;22595;-75
2021/12/13 01:33:43;;;;;;;9.23;6.49;;;;;;;5.07;99.01;100469.22;1982216;82;20456;-74
2021/12/13 01:37:03;;;;;;;12.07;7.04;;;;;;;5.08;98.95;100468.00;1982274;82;20390;-75
2021/12/13 01:40:11;;;;;;;9.51;6.80;;;;;;;5.08;98.89;100467.91;1982389;82;20313;-74
2021/12/13 01:43:21;;;;;;;9.95;7.18;;;;;;;5.08;98.87;100471.16;1983220;82;20406;-74
2021/12/13 01:46:24;;;;;;;9.34;6.69;;;;;;;5.08;98.95;100474.72;1982435;81;24114;-74
2021/12/13 01:49:30;;;;;;;9.04;6.64;;;;;;;5.09;98.95;100476.22;1987379;81;20419;-74
2021/12/13 01:52:35;;;;;;;8.29;6.74;;;;;;;5.09;98.92;100477.75;1987191;81;20308;-75
2021/12/13 01:55:43;;;;;;;8.05;6.05;;;;;;;5.10;98.88;100478.09;1987214;81;20415;-75
2021/12/13 01:58:48;;;;;;;10.06;6.71;;;;;;;5.10;98.67;100478.31;1988899;81;20335;-74
2021/12/13 02:01:50;;;;;;;8.34;6.75;;;;;;;5.10;98.77;100478.69;1986406;78;21751;-74
2021/12/13 02:05:12;;;;;;;7.93;6.07;;;;;;;5.11;98.83;100478.13;1987659;81;20438;-74
2021/12/13 02:08:20;;;;;;;7.86;6.49;;;;;;;5.11;98.78;100476.28;1988833;81;20327;-75
2021/12/13 02:11:26;;;;;;;7.80;6.17;;;;;;;5.11;98.69;100476.47;1987742;81;20351;-75
2021/12/13 02:14:32;;;;;;;9.89;6.71;;;;;;;5.11;98.73;100477.91;1988637;81;20187;-74
2021/12/13 02:17:35;;;;;;;8.74;6.21;;;;;;;5.10;98.73;100477.72;1986291;78;20347;-75
2021/12/13 02:20:42;;;;;;;8.27;6.21;;;;;;;5.10;98.85;100479.38;1988082;81;20319;-75
2021/12/13 02:23:49;;;;;;;9.30;6.34;;;;;;;5.10;98.84;100479.91;1988334;81;20343;-75
2021/12/13 02:26:53;;;;;;;9.48;6.24;;;;;;;5.09;98.88;100480.75;1988170;81;20403;-75
2021/12/13 02:29:59;;;;;;;7.13;6.43;;;;;;;5.10;98.90;100481.50;1987668;81;20707;-75
2021/12/13 02:33:06;;;;;;;8.16;7.05;;;;;;;5.10;98.84;100481.19;1989027;79;21116;-74
2021/12/13 02:36:19;;;;;;;8.48;6.81;;;;;;;5.10;98.75;100479.56;1988226;81;20324;-75
2021/12/13 02:39:28;;;;;;;9.96;7.11;;;;;;;5.10;98.67;100479.09;1986162;81;20348;-75
2021/12/13 02:42:31;;;;;;;8.29;6.41;;;;;;;5.10;98.70;100481.34;1988312;81;20342;-75
2021/12/13 02:45:42;;;;;;;8.45;6.79;;;;;;;5.09;98.58;100482.28;1985955;79;22092;-74
2021/12/13 02:48:54;;;;;;;9.20;7.09;;;;;;;5.08;98.69;100483.22;1983056;81;21385;-74
2021/12/13 02:52:01;;;;;;;6.82;6.10;;;;;;;5.08;98.78;100483.47;1984044;81;20442;-75
2021/12/13 02:55:10;;;;;;;9.01;6.41;;;;;;;5.08;98.81;100483.81;1983841;81;20337;-74
2021/12/13 02:58:16;;;;;;;8.01;6.39;;;;;;;5.08;98.78;100482.69;1982725;81;20388;-75
2021/12/13 03:01:27;;;;;;;9.89;7.22;;;;;;;5.07;98.70;100481.91;1981431;79;21362;-74
2021/12/13 03:04:31;;;;;;;8.88;6.86;;;;;;;5.07;98.80;100483.03;1984114;81;20361;-75
2021/12/13 03:07:39;;;;;;;10.29;6.65;;;;;;;5.07;98.76;100482.94;1983710;81;20414;-75
2021/12/13 03:10:48;;;;;;;8.20;6.45;;;;;;;5.07;98.85;100482.25;1984236;81;20393;-74
2021/12/13 03:13:54;;;;;;;7.89;6.63;;;;;;;5.08;98.81;100481.72;1984653;81;20341;-74
2021/12/13 03:17:13;;;;;;;6.54;5.91;;;;;;;5.08;98.76;100481.94;1990099;79;20627;-74
2021/12/13 03:20:18;;;;;;;6.22;5.51;;;;;;;5.09;98.77;100480.84;1994510;81;20338;-75
2021/12/13 03:23:47;;;;;;;8.64;6.72;;;;;;;5.09;98.67;100477.13;1993972;81;20217;-75
2021/12/13 03:26:50;;;;;;;8.63;6.11;;;;;;;5.09;98.61;100475.06;1994267;81;20456;-74
2021/12/13 03:30:17;;;;;;;8.45;6.31;;;;;;;5.08;98.49;100474.06;1994122;81;20296;-75
2021/12/13 03:33:31;;;;;;;7.61;6.38;;;;;;;5.07;98.60;100472.88;1985996;81;20384;-74
2021/12/13 03:36:52;;;;;;;8.41;6.00;;;;;;;5.05;98.67;100470.75;1984206;81;20340;-74
2021/12/13 03:40:00;;;;;;;6.95;6.18;;;;;;;5.04;98.79;100469.09;1984404;81;20309;-75
2021/12/13 03:43:12;;;;;;;6.38;5.63;;;;;;;5.03;98.84;100465.34;1984633;81;20355;-74
2021/12/13 03:46:17;;;;;;;8.24;5.39;;;;;;;5.02;98.83;100460.94;1985137;79;20894;-75
2021/12/13 03:49:20;;;;;;;6.49;5.79;;;;;;;5.01;98.69;100456.16;1988642;81;20355;-75
2021/12/13 03:52:30;;;;;;;7.88;5.82;;;;;;;5.00;98.64;100454.72;1989442;81;20337;-75
2021/12/13 03:55:36;;;;;;;6.75;4.95;;;;;;;4.99;98.65;100454.38;1988862;81;20355;-75
2021/12/13 03:58:44;;;;;;;6.09;5.24;;;;;;;4.98;98.53;100454.56;1989890;81;20986;-75
2021/12/13 04:01:59;;;;;;;6.66;5.91;;;;;;;4.97;98.65;100454.03;1987794;79;21743;-75
2021/12/13 04:05:08;;;;;;;6.99;5.59;;;;;;;4.97;98.71;100453.81;1988326;81;20681;-75
2021/12/13 04:08:12;;;;;;;6.40;5.74;;;;;;;4.97;98.67;100454.28;1984085;81;20484;-75
2021/12/13 04:11:15;;;;;;;6.16;5.49;;;;;;;4.97;98.66;100454.41;1988128;81;20168;-75
2021/12/13 04:14:25;;;;;;;6.14;5.36;;;;;;;4.97;98.64;100453.44;1987710;81;20379;-74
2021/12/13 04:17:45;;;;;;;6.64;4.75;;;;;;;4.97;98.62;100453.25;1986591;79;20869;-74
2021/12/13 04:20:47;;;;;;;6.00;4.95;;;;;;;4.98;98.55;100452.56;1987397;81;20368;-74
2021/12/13 04:23:53;;;;;;;5.53;4.80;;;;;;;4.97;98.58;100453.88;1986997;81;20347;-75
2021/12/13 04:27:03;;;;;;;4.74;4.26;;;;;;;4.97;98.63;100454.09;1987734;81;20354;-74
2021/12/13 04:30:24;;;;;;;5.81;5.22;;;;;;;4.97;98.72;100453.72;1986798;81;20339;-75
2021/12/13 04:33:35;;;;;;;5.24;4.74;;;;;;;4.97;98.52;100454.78;1992570;81;20358;-75
2021/12/13 04:36:46;;;;;;;5.54;5.00;;;;;;;4.96;98.70;100456.81;1992922;81;20855;-74
2021/12/13 04:39:59;;;;;;;5.69;5.11;;;;;;;4.96;98.70;100459.31;1993569;81;20354;-75
2021/12/13 04:43:06;;;;;;;6.89;6.15;;;;;;;4.96;98.86;100462.16;1993081;81;20404;-75
2021/12/13 04:46:11;;;;;;;6.22;5.41;;;;;;;4.96;98.79;100464.09;1991356;79;22539;-75
2021/12/13 04:49:18;;;;;;;6.25;4.86;;;;;;;4.97;98.83;100467.06;1993039;81;20460;-75
2021/12/13 04:52:21;;;;;;;7.07;5.32;;;;;;;4.97;98.83;100469.56;1992894;81;20367;-75
2021/12/13 04:55:32;;;;;;;5.75;5.22;;;;;;;4.97;98.80;100470.50;1992432;81;20351;-75
2021/12/13 04:58:35;;;;;;;5.97;5.41;;;;;;;4.98;98.84;100471.97;1992450;81;20342;-75
2021/12/13 05:01:37;;;;;;;6.51;5.69;;;;;;;4.98;98.73;100472.72;1991727;81;21521;-75
2021/12/13 05:04:40;;;;;;;5.65;5.15;;;;;;;4.99;98.74;100473.13;1993380;81;20446;-75
2021/12/13 05:07:46;;;;;;;6.00;5.01;;;;;;;4.99;98.75;100474.38;1993160;81;21392;-75
2021/12/13 05:10:50;;;;;;;6.34;5.31;;;;;;;4.99;98.76;100476.03;1993350;81;20362;-75
2021/12/13 05:13:58;;;;;;;6.47;4.71;;;;;;;5.00;98.71;100476.34;1993388;81;20760;-75
2021/12/13 05:17:27;;;;;;;6.75;5.51;;;;;;;5.01;98.64;100476.75;1990705;78;123585;-75
2021/12/13 05:20:34;;;;;;;5.93;5.28;;;;;;;5.01;98.62;100479.44;1992891;81;20799;-75
2021/12/13 05:23:55;;;;;;;5.69;5.13;;;;;;;5.01;98.66;100482.28;1992333;81;20432;-75
2021/12/13 05:27:09;;;;;;;6.14;5.46;;;;;;;5.02;98.73;100483.63;1993294;81;20428;-74
2021/12/13 05:30:21;;;;;;;6.31;5.01;;;;;;;5.03;98.73;100484.66;1991622;81;20393;-75
2021/12/13 05:33:30;;;;;;;6.00;5.40;;;;;;;5.03;98.60;100485.84;1993444;81;20342;-75
2021/12/13 05:36:34;;;;;;;;;;;;;;;5.04;98.59;100486.63;1993768;81;20358;-75
2021/12/13 05:39:53;;;;;;;5.65;4.89;;;;;;;5.04;98.53;100488.66;1993585;81;20142;-75
2021/12/13 05:43:10;;;;;;;5.60;4.94;;;;;;;5.04;98.54;100488.09;1993337;81;20327;-74
2021/12/13 05:46:23;;;;;;;5.53;5.00;;;;;;;5.04;98.56;100488.25;1992374;79;22554;-75
2021/12/13 05:49:33;;;;;;;5.71;4.76;;;;;;;5.04;98.53;100490.34;1989981;81;20527;-75
2021/12/13 05:52:38;;;;;;;5.44;4.94;;;;;;;5.05;98.55;100492.81;1993065;81;20399;-75
2021/12/13 05:55:52;;;;;;;5.35;4.25;;;;;;;5.05;98.55;100491.81;1993701;81;20843;-75
2021/12/13 05:59:08;;;;;;;5.32;4.82;;;;;;;5.05;98.53;100494.06;1993657;81;20987;-74
2021/12/13 06:02:14;;;;;;;6.53;5.06;;;;;;;5.05;98.50;100497.16;1992942;79;21008;-75
2021/12/13 06:05:31;;;;;;;5.89;5.10;;;;;;;5.05;98.63;100499.31;1994056;81;20372;-75
2021/12/13 06:08:40;;;;;;;5.93;5.31;;;;;;;5.04;98.60;100501.16;1993537;81;20349;-75
2021/12/13 06:11:59;;;;;;;6.55;5.18;;;;;;;5.04;98.67;100502.88;1993603;81;20479;-75
2021/12/13 06:15:17;;;;;;;6.22;4.89;;;;;;;5.03;98.70;100504.34;1992491;81;20828;-74
2021/12/13 06:18:23;;;;;;;6.34;5.22;;;;;;;5.04;98.72;100507.69;1988875;81;20390;-75
2021/12/13 06:22:04;;;;;;;6.41;4.79;;;;;;;5.04;98.74;100511.31;1988618;81;20307;-75
2021/12/13 06:25:14;;;;;;;6.50;4.71;;;;;;;5.05;98.68;100515.84;1988930;81;20363;-75
2021/12/13 06:28:20;;;;;;;8.79;5.70;;;;;;;5.06;98.65;100521.00;1988686;81;20319;-75
2021/12/13 06:31:32;;;;;;;9.98;5.72;;;;;;;5.06;98.53;100522.69;1986929;79;20453;-75
2021/12/13 06:34:35;;;;;;;8.40;6.09;;;;;;;5.06;98.57;100523.28;1987925;81;21331;-75
2021/12/13 06:37:38;;;;;;;8.46;5.28;;;;;;;5.06;98.64;100524.78;1988201;81;20349;-75
2021/12/13 06:40:48;;;;;;;9.63;6.28;;;;;;;5.06;98.70;100526.22;1988972;81;20359;-75
2021/12/13 06:43:56;;;;;;;9.61;6.31;;;;;;;5.06;98.64;100528.44;1988188;81;20404;-75
2021/12/13 06:47:09;;;;;;;8.40;6.00;;;;;;;5.06;98.71;100529.72;1989815;78;21011;-75
2021/12/13 06:50:19;;;;;;;7.44;6.18;;;;;;;5.06;98.61;100530.03;1993181;81;20358;-74
2021/12/13 06:53:22;;;;;;;7.81;6.28;;;;;;;5.07;98.68;100530.00;1993396;81;20318;-75
2021/12/13 06:56:30;;;;;;;8.44;6.32;;;;;;;5.07;98.71;100530.91;1993780;81;20347;-75
2021/12/13 06:59:45;;;;;;;9.35;6.30;;;;;;;5.07;98.65;100531.31;1992893;81;20740;-75
2021/12/13 07:02:52;;;;;;;9.77;6.90;;;;;;;5.08;98.63;100532.03;1991452;78;21918;-75
2021/12/13 07:05:58;;;;;;;10.73;7.22;;;;;;;5.08;98.58;100531.28;1992217;81;21027;-75
2021/12/13 07:09:05;;;;;;;11.09;7.34;;;;;;;5.08;98.53;100528.88;1993275;81;20501;-74
2021/12/13 07:12:15;;;;;;;9.45;6.78;;;;;;;5.09;98.51;100528.81;1992268;81;20343;-75
2021/12/13 07:15:55;;;;;;;12.98;6.43;;;;;;;5.08;98.39;100528.06;1989375;79;23377;-75
2021/12/13 07:19:18;;;;;;;9.50;6.39;;;;;;;5.08;98.50;100528.38;1983967;81;20335;-76
2021/12/13 07:22:27;;;;;;;10.07;6.51;;;;;;;5.07;98.61;100528.63;1987368;81;20343;-76
2021/12/13 07:25:36;;;;;;;9.61;6.47;;;;;;;5.07;98.63;100527.22;1987668;81;20387;-77
2021/12/13 07:28:40;;;;;;;11.49;6.71;;;;;;;5.07;98.61;100527.50;1986279;81;21248;-76
2021/12/13 07:31:43;;;;;;;8.96;6.22;;;;;;;5.07;98.58;100526.63;1987310;79;20456;-77
2021/12/13 07:35:01;;;;;;;8.79;6.16;;;;;;;5.06;98.68;100525.56;1990638;81;20926;-76
2021/12/13 07:38:16;;;;;;;11.81;6.49;;;;;;;5.06;98.56;100525.34;1992045;81;20460;-76
2021/12/13 07:41:19;;;;;;;11.29;6.44;;;;;;;5.05;98.73;100526.88;1992001;81;20390;-76
2021/12/13 07:44:31;;;;;;;11.77;6.55;;;;;;;5.05;98.72;100528.41;1992351;81;20343;-77
2021/12/13 07:47:35;;;;;;;12.63;6.95;;;;;;;5.04;98.83;100529.13;1985561;79;21412;-75
2021/12/13 07:50:40;;;;;;;11.57;7.09;;;;;;;5.04;98.68;100530.06;1986455;81;20356;-75
2021/12/13 07:54:02;;;;;;;9.84;6.44;;;;;;;5.04;98.83;100530.06;1985649;81;20379;-75
2021/12/13 07:57:21;;;;;;;13.79;6.80;;;;;;;5.04;98.91;100528.78;1986261;81;20353;-76
2021/12/13 08:00:30;;;;;;;11.05;6.81;;;;;;;5.05;98.99;100526.97;1984797;79;20361;-76
2021/12/13 08:03:33;;;;;;;12.66;7.09;;;;;;;5.06;99.01;100528.03;1986552;81;20391;-75
2021/12/13 08:06:55;;;;;;;12.24;6.71;;;;;;;5.07;98.91;100527.44;1986114;81;20422;-76
2021/12/13 08:10:07;;;;;;;11.04;6.94;;;;;;;5.09;98.86;100527.50;1986781;81;20337;-76
2021/12/13 08:13:17;;;;;;;15.68;7.03;;;;;;;5.10;98.88;100525.63;1986062;81;20738;-75
2021/12/13 08:16:31;;;;;;;12.69;7.38;;;;;;;5.11;98.77;100524.78;1984634;79;22049;-76
2021/12/13 08:19:34;;;;;;;15.19;7.28;;;;;;;5.13;98.90;100524.69;1986409;81;20445;-77
2021/12/13 08:22:43;;;;;;;12.66;6.89;;;;;;;5.15;99.03;100526.50;1985356;81;20398;-76
2021/12/13 08:25:50;;;;;;;12.46;7.57;;;;;;;5.19;99.02;100526.22;1987891;81;20361;-76
2021/12/13 08:28:55;;;;;;;11.06;6.55;;;;;;;5.23;98.87;100527.63;1985640;81;20221;-76
2021/12/13 08:32:11;;;;;;;11.20;6.93;;;;;;;5.27;98.80;100529.59;1985992;81;22951;-78
2021/12/13 08:35:13;;;;;;;10.96;6.24;;;;;;;5.31;98.52;100530.28;1985790;81;20351;-76
2021/12/13 08:38:27;;;;;;;9.31;6.89;;;;;;;5.35;98.45;100531.91;1985359;81;20465;-76
2021/12/13 08:41:48;;;;;;;10.64;6.71;;;;;;;5.39;98.55;100535.06;1984954;81;20332;-76
2021/12/13 08:45:16;;;;;;;8.38;6.06;;;;;;;5.44;98.45;100538.38;1986096;81;21668;-76
2021/12/13 08:48:20;;;;;;;8.27;5.87;;;;;;;5.48;98.17;100540.78;1985664;79;23187;-76
2021/12/13 08:51:26;;;;;;;9.31;6.47;;;;;;;5.51;97.95;100543.00;1984926;81;20320;-76
2021/12/13 08:55:10;;;;;;;10.70;5.75;;;;;;;5.53;97.81;100545.88;1989808;81;20380;-76
2021/12/13 08:58:17;;;;;;;9.43;5.86;;;;;;;5.55;97.62;100546.88;1986226;81;20400;-78
2021/12/13 09:01:20;;;;;;;8.68;5.74;;;;;;;5.57;97.37;100547.28;1988947;78;21105;-79
2021/12/13 09:04:35;;;;;;;8.19;5.89;;;;;;;5.59;97.23;100547.63;1991376;81;20323;-76
2021/12/13 09:08:09;;;;;;;8.95;6.43;;;;;;;5.61;97.16;100548.97;1990929;81;20338;-76
2021/12/13 09:11:27;;;;;;;9.05;6.14;;;;;;;5.64;96.87;100549.91;1990830;81;20326;-76
2021/12/13 09:14:38;;;;;;;11.76;6.10;;;;;;;5.66;96.88;100553.19;1990327;81;20412;-75
2021/12/13 09:17:41;;;;;;;8.99;6.06;;;;;;;5.68;96.86;100554.72;1983530;79;25319;-76
2021/12/13 09:20:52;;;;;;;8.20;5.89;;;;;;;5.71;96.80;100555.88;1986027;81;20328;-76
2021/12/13 09:23:55;;;;;;;9.29;6.04;;;;;;;5.73;96.85;100558.00;1985589;81;20327;-75
2021/12/13 09:27:16;;;;;;;9.52;5.99;;;;;;;5.76;96.70;100560.88;1985634;81;21025;-75
2021/12/13 09:30:36;;;;;;;7.61;5.59;;;;;;;5.80;96.71;100562.22;1984347;81;20359;-76
2021/12/13 09:33:52;;;;;;;9.30;6.25;;;;;;;5.84;96.60;100565.81;1992348;81;20478;-75
2021/12/13 09:36:55;;;;;;;8.45;5.68;;;;;;;5.88;96.44;100568.47;1990076;81;20352;-76
2021/12/13 09:40:01;;;;;;;9.98;6.51;;;;;;;5.92;96.43;100570.78;1989810;81;20395;-75
2021/12/13 09:43:04;;;;;;;10.00;6.71;;;;;;;5.96;96.32;100572.94;1991110;81;20442;-76
2021/12/13 09:46:11;;;;;;;9.24;6.28;;;;;;;5.99;96.11;100574.22;1987316;79;20973;-76
2021/12/13 09:49:22;;;;;;;8.51;5.79;;;;;;;6.02;95.97;100575.56;1985120;81;20563;-76
2021/12/13 09:52:28;;;;;;;9.88;5.44;;;;;;;6.05;95.86;100576.06;1986285;81;20320;-76
2021/12/13 09:55:41;;;;;;;7.57;5.25;;;;;;;6.07;95.70;100577.31;1985172;81;20377;-76
2021/12/13 09:58:50;;;;;;;8.50;5.80;;;;;;;6.10;95.79;100578.78;1985178;81;20347;-76
2021/12/13 10:01:56;;;;;;;10.31;5.97;;;;;;;6.13;95.81;100579.25;1984468;79;23738;-76
2021/12/13 10:05:04;;;;;;;8.89;5.24;;;;;;;6.18;96.09;100579.03;1985307;81;20426;-76
2021/12/13 10:08:13;;;;;;;7.69;5.54;;;;;;;6.25;96.19;100578.53;1985730;81;20369;-76
2021/12/13 10:11:26;;;;;;;8.68;5.66;;;;;;;6.31;95.93;100577.72;1985507;81;20177;-76
2021/12/13 10:14:34;;;;;;;7.30;5.20;;;;;;;6.38;95.75;100575.06;1985358;81;20385;-76
2021/12/13 10:17:40;;;;;;;5.56;4.60;;;;;;;6.43;95.04;100571.47;1984593;78;21001;-76
2021/12/13 10:20:48;;;;;;;8.43;4.68;;;;;;;6.48;94.60;100568.94;1985225;81;20349;-76
2021/12/13 10:23:55;;;;;;;7.29;4.90;;;;;;;6.54;94.39;100566.38;1986862;81;20373;-76
2021/12/13 10:27:01;;;;;;;5.99;4.36;;;;;;;6.58;94.25;100564.41;1985961;81;20341;-76
2021/12/13 10:30:29;;;;;;;6.35;4.80;;;;;;;6.63;94.15;100559.06;1984542;81;21358;-76
2021/12/13 10:33:34;;;;;;;6.61;4.80;;;;;;;6.68;93.87;100554.84;1987423;81;20371;-76
2021/12/13 10:36:40;;;;;;;7.01;5.31;;;;;;;6.74;93.77;100550.81;1985868;81;21024;-76
2021/12/13 10:39:48;;;;;;;7.16;4.74;;;;;;;6.80;93.64;100549.00;1986329;81;20654;-76
2021/12/13 10:43:16;;;;;;;7.99;5.71;;;;;;;6.86;93.43;100548.34;1985039;81;20336;-76
2021/12/13 10:46:25;;;;;;;7.52;5.90;;;;;;;6.92;92.88;100544.72;1983787;78;22663;-76
2021/12/13 10:49:29;;;;;;;;;;;;;;;6.97;92.71;100540.84;1990175;81;21229;-76
2021/12/13 10:52:36;;;;;;;7.46;5.74;;;;;;;7.04;92.75;100537.22;1990469;81;20047;-76
2021/12/13 10:55:46;;;;;;;12.65;7.39;;;;;;;7.11;92.78;100533.22;1990743;81;20849;-76
2021/12/13 10:58:54;;;;;;;12.30;8.48;;;;;;;7.17;92.48;100529.56;1989849;81;20881;-76
2021/12/13 11:02:04;;;;;;;17.07;10.34;;;;;;;7.23;92.41;100525.13;1988297;78;22534;-76
2021/12/13 11:05:17;;;;;;;22.24;15.49;;;;;;;7.29;92.18;100522.63;1990307;81;20214;-76
2021/12/13 11:08:22;;;;;;;22.95;14.85;;;;;;;7.34;92.06;100522.81;1988344;81;20338;-76
2021/12/13 11:11:37;;;;;;;24.48;15.69;;;;;;;7.39;91.67;100521.19;1988229;81;20373;-76
2021/12/13 11:14:43;;;;;;;24.33;15.69;;;;;;;7.45;91.72;100518.91;1988592;81;20576;-76
2021/12/13 11:17:47;;;;;;;16.74;12.90;;;;;;;7.53;91.37;100516.91;1987477;79;26967;-75
2021/12/13 11:20:50;;;;;;;17.86;11.79;;;;;;;7.61;91.24;100516.91;1989432;81;20343;-76
2021/12/13 11:23:56;;;;;;;20.91;14.01;;;;;;;7.68;90.79;100514.88;1989489;81;20376;-76
2021/12/13 11:27:03;;;;;;;15.31;11.18;;;;;;;7.75;90.51;100511.22;1989433;81;20330;-75
2021/12/13 11:30:14;;;;;;;14.21;11.30;;;;;;;7.81;90.18;100509.28;1987493;81;20384;-76
2021/12/13 11:34:01;;;;;;;15.65;11.69;;;;;;;7.87;90.04;100504.13;1988678;79;21821;-76
2021/12/13 11:37:45;;;;;;;13.45;10.68;;;;;;;7.96;89.62;100500.91;1970252;81;20951;-75
2021/12/13 11:41:20;;;;;;;13.04;9.74;;;;;;;8.05;89.26;100500.97;1989643;81;20383;-76
2021/12/13 11:44:54;;;;;;;13.70;9.63;;;;;;;8.12;88.61;100500.06;1979781;81;20369;-75
2021/12/13 11:48:36;;;;;;;12.60;9.30;;;;;;;8.18;88.08;100496.91;1988136;78;23315;-76
2021/12/13 11:52:03;;;;;;;11.02;8.84;;;;;;;8.24;87.62;100492.94;1988996;81;20744;-76
2021/12/13 11:55:42;;;;;;;11.40;8.77;;;;;;;8.28;87.74;100490.34;1988278;81;20363;-76
2021/12/13 11:59:25;;;;;;;10.22;7.83;;;;;;;8.32;88.22;100487.38;1984725;81;20372;-75
2021/12/13 12:03:05;;;;;;;9.66;7.93;;;;;;;8.36;87.99;100485.88;1987734;78;23496;-76
2021/12/13 12:06:08;;;;;;;10.95;8.50;;;;;;;8.39;87.92;100483.66;1989634;81;20303;-76
2021/12/13 12:10:02;;;;;;;9.56;8.15;;;;;;;8.40;87.55;100483.16;1985127;81;20347;-76
2021/12/13 12:13:31;;;;;;;11.59;8.59;;;;;;;8.41;87.76;100480.50;1989170;81;20370;-76
2021/12/13 12:16:44;;;;;;;14.34;9.52;;;;;;;8.38;87.43;100479.06;1985317;81;20383;-76
2021/12/13 12:19:56;;;;;;;11.88;8.49;;;;;;;8.35;87.65;100479.97;1983679;81;20223;-76
2021/12/13 12:23:09;;;;;;;12.46;9.09;;;;;;;8.32;88.11;100480.09;1983315;81;20425;-76
2021/12/13 12:26:14;;;;;;;10.57;9.14;;;;;;;8.31;88.50;100479.78;1982464;81;21224;-76
2021/12/13 12:29:30;;;;;;;10.66;8.79;;;;;;;8.28;88.63;100476.03;1984180;81;20320;-76
2021/12/13 12:32:36;;;;;;;14.63;8.71;;;;;;;8.26;88.84;100472.53;1982658;79;22352;-77
2021/12/13 12:35:47;;;;;;;10.11;8.19;;;;;;;8.24;88.68;100471.75;1991627;81;20330;-76
2021/12/13 12:39:04;;;;;;;10.07;8.64;;;;;;;8.20;88.73;100472.44;1987655;81;20330;-76
2021/12/13 12:42:39;;;;;;;9.45;7.86;;;;;;;8.15;88.84;100469.09;1985530;81;20867;-76
2021/12/13 12:45:49;;;;;;;10.84;8.75;;;;;;;8.11;89.23;100468.75;1979077;78;33262;-77
2021/12/13 12:48:58;;;;;;;9.69;7.89;;;;;;;8.09;89.68;100468.78;1989568;81;20432;-76
2021/12/13 12:52:05;;;;;;;8.91;7.91;;;;;;;8.06;89.74;100470.47;1987336;81;20323;-76
2021/12/13 12:55:14;;;;;;;10.51;8.34;;;;;;;8.02;89.68;100472.50;1988728;81;20253;-76
2021/12/13 12:58:24;;;;;;;10.96;7.79;;;;;;;7.99;89.70;100471.09;1989028;81;20849;-76
2021/12/13 13:01:57;;;;;;;14.30;9.02;;;;;;;7.94;89.80;100468.06;1985501;81;20218;-76
2021/12/13 13:05:04;;;;;;;9.51;7.40;;;;;;;7.91;90.00;100470.69;1986092;81;20492;-76
2021/12/13 13:08:09;;;;;;;9.59;6.60;;;;;;;7.86;89.84;100471.38;1985311;81;20359;-76
2021/12/13 13:11:35;;;;;;;7.38;6.50;;;;;;;7.82;89.98;100470.91;1984772;81;20393;-76
2021/12/13 13:15:08;;;;;;;8.81;7.24;;;;;;;7.79;90.30;100469.28;1985488;81;21151;-76
2021/12/13 13:18:16;;;;;;;8.66;7.09;;;;;;;7.78;90.54;100467.69;1980487;79;22888;-76
2021/12/13 13:21:19;;;;;;;8.04;6.89;;;;;;;7.78;90.59;100465.09;1980028;82;20986;-76
2021/12/13 13:24:22;;;;;;;7.84;7.00;;;;;;;7.79;90.65;100462.97;1980673;82;20376;-76
2021/12/13 13:27:28;;;;;;;7.45;6.75;;;;;;;7.81;90.68;100460.91;1980672;82;20352;-76
2021/12/13 13:30:44;;;;;;;7.39;6.68;;;;;;;7.82;90.48;100459.59;1980978;78;24233;-76
2021/12/13 13:33:57;;;;;;;7.78;6.51;;;;;;;7.84;90.52;100459.69;1990724;81;20634;-76
2021/12/13 13:37:07;;;;;;;7.06;6.32;;;;;;;7.86;90.47;100457.84;1991171;81;20443;-76
2021/12/13 13:40:17;;;;;;;7.35;6.65;;;;;;;7.88;90.26;100457.00;1988874;81;20407;-76
2021/12/13 13:43:21;;;;;;;7.29;6.51;;;;;;;7.89;90.30;100455.22;1990428;81;20351;-76
2021/12/13 13:46:25;;;;;;;7.97;6.65;;;;;;;7.91;90.46;100451.66;1986978;81;26800;-76
2021/12/13 13:49:28;;;;;;;8.91;8.01;;;;;;;7.92;90.45;100448.59;1985087;81;20492;-76
2021/12/13 13:52:31;;;;;;;8.88;7.41;;;;;;;7.94;90.24;100447.38;1985279;81;20337;-77
2021/12/13 13:55:39;;;;;;;7.93;7.04;;;;;;;7.96;90.17;100446.03;1986061;81;20417;-77
2021/12/13 13:58:45;;;;;;;6.76;6.16;;;;;;;7.98;90.08;100445.09;1985838;81;20528;-76
2021/12/13 14:02:04;;;;;;;8.15;6.94;;;;;;;7.99;89.98;100445.19;1983578;80;23175;-77
2021/12/13 14:05:10;;;;;;;6.65;5.95;;;;;;;8.00;90.12;100446.09;1986162;81;20441;-77
2021/12/13 14:08:23;;;;;;;7.85;6.04;;;;;;;8.01;90.16;100446.97;1986139;81;20313;-76
2021/12/13 14:11:28;;;;;;;8.38;6.60;;;;;;;8.01;90.05;100449.78;1989751;81;20312;-77
2021/12/13 14:15:06;;;;;;;7.59;6.69;;;;;;;8.01;89.85;100450.16;1987026;81;20449;-77
2021/12/13 14:18:15;;;;;;;8.01;6.38;;;;;;;8.00;89.93;100451.06;1977415;79;28221;-77
2021/12/13 14:21:26;;;;;;;7.46;5.95;;;;;;;8.00;89.91;100451.00;1981110;81;20979;-77
2021/12/13 14:24:39;;;;;;;7.03;6.32;;;;;;;8.00;89.79;100450.16;1981969;81;20337;-77
2021/12/13 14:27:44;;;;;;;7.24;6.44;;;;;;;8.00;90.03;100446.66;1981900;82;20950;-77
2021/12/13 14:31:06;;;;;;;7.40;5.82;;;;;;;8.00;89.97;100446.69;1982290;78;21862;-77
2021/12/13 14:34:10;;;;;;;6.63;5.83;;;;;;;8.00;90.12;100444.91;1986912;81;20192;-77
2021/12/13 14:37:14;;;;;;;7.26;5.96;;;;;;;8.00;90.10;100442.06;1986590;81;20662;-77
2021/12/13 14:40:18;;;;;;;6.97;6.24;;;;;;;8.00;90.21;100438.31;1986823;81;20547;-77
2021/12/13 14:43:25;;;;;;;7.21;6.35;;;;;;;8.01;90.40;100436.16;1987096;81;20365;-77
2021/12/13 14:46:32;;;;;;;7.70;6.59;;;;;;;8.01;90.53;100438.91;1987087;78;20648;-76
2021/12/13 14:49:48;;;;;;;7.30;6.41;;;;;;;8.00;90.43;100439.97;1990774;81;20428;-76
2021/12/13 14:53:04;;;;;;;7.60;6.82;;;;;;;7.99;90.44;100440.31;1991667;81;20570;-77
2021/12/13 14:56:14;;;;;;;7.63;6.84;;;;;;;7.98;90.56;100441.50;1991896;81;21097;-77
2021/12/13 14:59:17;;;;;;;7.72;6.69;;;;;;;7.97;90.65;100441.13;1990152;81;20408;-77
2021/12/13 15:02:28;;;;;;;8.61;6.76;;;;;;;7.95;90.63;100442.50;1988865;78;23913;-77